Time;durP1;ratioP1;P1;durP2;ratioP2;P2;SDS_P1;SDS_P2;PMS_P1;PMS_P2;Temp;Humidity;BMP_temperature;BMP_pressure;BME280_temperature;BME280_humidity;BME280_pressure;Samples;Min_cycle;Max_cycle;Signal;HPM_P1;HPM_P2
2021/08/01 00:01:44;;;;;;;;;;;;;;;28.57;40.62;96625.78;5011545;28;1360;-51
2021/08/01 00:04:09;;;;;;;;;;;;;;;28.40;40.89;96632.03;5013192;28;1304;-50
2021/08/01 00:06:34;;;;;;;;;;;;;;;28.43;40.90;96621.09;5010915;28;1611;-51
2021/08/01 00:08:59;;;;;;;;;;;;;;;28.39;40.98;96622.44;5011640;28;1296;-50
2021/08/01 00:11:24;;;;;;;;;;;;;;;28.39;41.14;96618.94;5008664;28;1619;-50
2021/08/01 00:13:50;;;;;;;;;;;;;;;28.50;40.65;96624.75;5008761;28;1902;-49
2021/08/01 00:16:15;;;;;;;;;;;;;;;28.42;41.15;96618.59;5010267;28;1038;-50
2021/08/01 00:18:40;;;;;;;;;;;;;;;28.50;40.65;96627.41;5011641;28;1117;-49
2021/08/01 00:21:05;;;;;;;;;;;;;;;28.36;40.99;96620.94;5011506;28;1354;-50
2021/08/01 00:23:31;;;;;;;;;;;;;;;28.48;40.75;96618.81;5008807;28;1583;-49
2021/08/01 00:25:57;;;;;;;;;;;;;;;28.41;40.83;96620.44;5009044;28;1555;-50
2021/08/01 00:28:22;;;;;;;;;;;;;;;28.27;41.12;96608.59;5013060;28;1225;-50
2021/08/01 00:30:47;;;;;;;;;;;;;;;28.39;40.84;96609.16;5012127;28;1237;-51
2021/08/01 00:33:12;;;;;;;;;;;;;;;28.52;40.72;96616.66;5010821;28;1906;-50
2021/08/01 00:35:37;;;;;;;;;;;;;;;28.36;41.11;96612.16;5010263;28;1623;-49
2021/08/01 00:38:03;;;;;;;;;;;;;;;28.26;41.24;96620.19;5006925;28;1574;-49
2021/08/01 00:40:28;;;;;;;;;;;;;;;28.24;41.64;96621.34;5010642;28;1578;-50
2021/08/01 00:42:53;;;;;;;;;;;;;;;28.39;41.16;96621.59;5011321;28;1007;-51
2021/08/01 00:45:18;;;;;;;;;;;;;;;28.34;41.13;96628.19;5010510;28;1378;-51
2021/08/01 00:47:43;;;;;;;;;;;;;;;28.25;41.36;96626.47;5011500;28;1563;-51
2021/08/01 00:50:09;;;;;;;;;;;;;;;28.34;41.27;96630.03;5011960;28;1149;-50
2021/08/01 00:52:35;;;;;;;;;;;;;;;28.37;41.06;96640.31;5010957;28;1969;-50
2021/08/01 00:55:00;;;;;;;;;;;;;;;28.33;41.33;96638.97;5050919;23;1785;-52
2021/08/01 00:57:26;;;;;;;;;;;;;;;28.30;41.42;96637.47;5010160;28;1607;-52
2021/08/01 00:59:51;;;;;;;;;;;;;;;28.27;41.41;96635.09;5020311;28;1533;-53
2021/08/01 01:02:16;;;;;;;;;;;;;;;28.53;40.73;96639.53;5025653;28;1385;-52
2021/08/01 01:04:45;;;;;;;;;;;;;;;28.28;41.30;96635.94;5009507;28;1332;-52
2021/08/01 01:07:26;;;;;;;;;;;;;;;28.34;41.03;96635.31;5027822;28;1583;-51
2021/08/01 01:09:54;;;;;;;;;;;;;;;28.39;40.93;96632.19;5031552;28;1334;-52
2021/08/01 01:12:20;;;;;;;;;;;;;;;28.45;41.03;96637.69;5012467;28;1723;-53
2021/08/01 01:14:48;;;;;;;;;;;;;;;28.31;41.34;96641.78;5030287;28;1910;-51
2021/08/01 01:17:14;;;;;;;;;;;;;;;28.33;41.37;96641.63;5030778;28;1232;-54
2021/08/01 01:19:50;;;;;;;;;;;;;;;28.34;41.15;96641.47;5029147;28;1774;-53
2021/08/01 01:22:18;;;;;;;;;;;;;;;28.31;41.11;96643.63;5029927;28;1180;-50
2021/08/01 01:24:43;;;;;;;;;;;;;;;28.42;41.14;96645.97;5013510;28;1335;-51
2021/08/01 01:27:15;;;;;;;;;;;;;;;28.24;41.46;96648.69;5029364;28;1606;-51
2021/08/01 01:29:40;;;;;;;;;;;;;;;28.25;41.20;96650.34;5028981;28;1225;-52
2021/08/01 01:32:09;;;;;;;;;;;;;;;28.31;41.30;96640.97;5031021;28;1906;-52
2021/08/01 01:34:37;;;;;;;;;;;;;;;28.33;40.97;96631.84;5028232;28;1965;-51
2021/08/01 01:37:03;;;;;;;;;;;;;;;28.28;41.22;96628.84;5031305;28;1337;-53
2021/08/01 01:39:29;;;;;;;;;;;;;;;28.32;41.23;96632.00;5012640;28;1428;-53
2021/08/01 01:41:54;;;;;;;;;;;;;;;28.33;41.10;96633.66;5028273;28;1544;-53
2021/08/01 01:44:20;;;;;;;;;;;;;;;28.34;41.03;96632.66;5013182;28;1499;-53
2021/08/01 01:46:45;;;;;;;;;;;;;;;28.34;40.96;96636.16;5011897;28;1398;-53
2021/08/01 01:49:10;;;;;;;;;;;;;;;28.32;41.02;96635.50;5011036;28;1530;-53
2021/08/01 01:51:35;;;;;;;;;;;;;;;28.36;40.99;96625.41;5030900;28;1260;-53
2021/08/01 01:54:01;;;;;;;;;;;;;;;28.44;40.95;96617.47;5029378;28;1963;-53
2021/08/01 01:56:27;;;;;;;;;;;;;;;28.33;40.94;96615.09;5027311;28;1538;-53
2021/08/01 01:58:52;;;;;;;;;;;;;;;28.29;41.22;96611.09;5011470;28;1779;-52
2021/08/01 02:01:17;;;;;;;;;;;;;;;28.22;41.50;96615.38;5013599;28;1193;-51
2021/08/01 02:03:42;;;;;;;;;;;;;;;28.27;41.06;96605.09;5011009;28;1636;-54
2021/08/01 02:06:08;;;;;;;;;;;;;;;28.30;41.11;96602.19;5029880;28;1555;-52
2021/08/01 02:08:35;;;;;;;;;;;;;;;28.25;41.46;96594.66;5026990;28;1470;-51
2021/08/01 02:11:00;;;;;;;;;;;;;;;28.42;40.94;96595.56;5009623;28;1569;-53
2021/08/01 02:13:28;;;;;;;;;;;;;;;28.31;40.91;96594.06;5028845;28;1910;-54
2021/08/01 02:15:57;;;;;;;;;;;;;;;28.38;41.19;96588.94;5012759;28;1473;-54
2021/08/01 02:18:34;;;;;;;;;;;;;;;28.32;40.99;96585.09;5028865;28;1133;-53
2021/08/01 02:20:59;;;;;;;;;;;;;;;28.23;41.28;96582.56;5025505;28;1565;-52
2021/08/01 02:23:25;;;;;;;;;;;;;;;28.26;41.07;96591.03;5012670;28;1391;-51
2021/08/01 02:25:51;;;;;;;;;;;;;;;28.24;41.26;96590.34;5029131;28;1543;-51
2021/08/01 02:28:16;;;;;;;;;;;;;;;28.39;41.05;96587.13;5011688;28;1314;-53
2021/08/01 02:30:41;;;;;;;;;;;;;;;28.31;41.08;96578.16;5011667;28;1149;-54
2021/08/01 02:33:06;;;;;;;;;;;;;;;28.34;40.94;96579.63;5027185;28;1969;-51
2021/08/01 02:35:32;;;;;;;;;;;;;;;28.48;40.76;96578.19;5029551;28;1382;-54
2021/08/01 02:37:57;;;;;;;;;;;;;;;28.32;41.10;96576.31;5028630;28;1464;-54
2021/08/01 02:40:23;;;;;;;;;;;;;;;28.30;41.00;96571.19;5027744;28;1532;-53
2021/08/01 02:42:48;;;;;;;;;;;;;;;28.33;40.93;96570.03;5027439;28;983;-52
2021/08/01 02:45:14;;;;;;;;;;;;;;;28.22;41.32;96573.78;5027373;28;1441;-54
2021/08/01 02:47:39;;;;;;;;;;;;;;;28.43;41.15;96580.50;5011815;28;1202;-53
2021/08/01 02:50:04;;;;;;;;;;;;;;;28.42;40.84;96586.78;5027336;28;1437;-54
2021/08/01 02:52:50;;;;;;;;;;;;;;;28.33;41.12;96580.63;5027290;28;1808;-53
2021/08/01 02:55:15;;;;;;;;;;;;;;;28.31;41.22;96582.63;5024483;28;1506;-54
2021/08/01 02:57:41;;;;;;;;;;;;;;;28.34;40.94;96579.63;5026349;28;1804;-52
2021/08/01 03:00:07;;;;;;;;;;;;;;;28.32;41.28;96578.97;5029801;28;1295;-54
2021/08/01 03:02:32;;;;;;;;;;;;;;;28.32;41.09;96571.03;5029764;28;1145;-53
2021/08/01 03:04:57;;;;;;;;;;;;;;;28.30;41.01;96543.84;5028191;28;1974;-53
2021/08/01 03:07:22;;;;;;;;;;;;;;;28.41;40.99;96540.88;5027385;28;1260;-53
2021/08/01 03:09:48;;;;;;;;;;;;;;;28.41;40.82;96540.03;5025779;28;1687;-53
2021/08/01 03:12:14;;;;;;;;;;;;;;;28.39;40.74;96531.44;5026825;28;1642;-54
2021/08/01 03:14:39;;;;;;;;;;;;;;;28.40;40.80;96536.56;5028290;28;1910;-52
2021/08/01 03:17:04;;;;;;;;;;;;;;;28.38;40.78;96527.94;5030386;28;1249;-51
2021/08/01 03:19:32;;;;;;;;;;;;;;;28.31;41.04;96534.91;5027921;28;1670;-51
2021/08/01 03:21:57;;;;;;;;;;;;;;;28.31;41.24;96537.56;5029752;28;1185;-52
2021/08/01 03:24:22;;;;;;;;;;;;;;;28.48;40.71;96549.00;5028928;28;1531;-53
2021/08/01 03:26:47;;;;;;;;;;;;;;;28.29;41.17;96545.66;5027471;28;1532;-53
2021/08/01 03:29:13;;;;;;;;;;;;;;;28.33;41.27;96532.91;5028706;28;1349;-54
2021/08/01 03:31:38;;;;;;;;;;;;;;;28.48;40.76;96525.13;5028855;28;1189;-51
2021/08/01 03:34:03;;;;;;;;;;;;;;;28.45;40.84;96515.69;5025908;28;1914;-51
2021/08/01 03:36:28;;;;;;;;;;;;;;;28.34;41.05;96513.34;5029707;28;1173;-53
2021/08/01 03:38:54;;;;;;;;;;;;;;;28.43;40.72;96511.53;5028662;28;1473;-53
2021/08/01 03:41:19;;;;;;;;;;;;;;;28.50;40.45;96502.75;5028103;28;1578;-53
2021/08/01 03:43:44;;;;;;;;;;;;;;;28.41;41.12;96501.09;5027989;28;1387;-52
2021/08/01 03:46:09;;;;;;;;;;;;;;;28.55;40.39;96502.28;5029358;28;1462;-53
2021/08/01 03:48:35;;;;;;;;;;;;;;;28.33;41.02;96501.91;5028634;28;1185;-53
2021/08/01 03:51:01;;;;;;;;;;;;;;;28.51;40.50;96500.94;5027822;28;1520;-53
2021/08/01 03:53:26;;;;;;;;;;;;;;;28.33;40.82;96491.31;5029109;28;1906;-51
2021/08/01 03:55:51;;;;;;;;;;;;;;;28.27;41.08;96475.19;5025439;28;1640;-53
2021/08/01 03:58:16;;;;;;;;;;;;;;;28.31;41.02;96469.44;5028905;28;1699;-51
2021/08/01 04:00:47;;;;;;;;;;;;;;;28.38;40.93;96460.84;5028136;28;1248;-53
2021/08/01 04:03:13;;;;;;;;;;;;;;;28.47;40.63;96473.09;5027496;28;1193;-51
2021/08/01 04:05:38;;;;;;;;;;;;;;;28.39;40.90;96478.41;5027389;28;1591;-52
2021/08/01 04:08:03;;;;;;;;;;;;;;;28.44;40.70;96482.22;5028471;28;1129;-52
2021/08/01 04:10:29;;;;;;;;;;;;;;;28.32;41.13;96479.03;5030134;28;1567;-53
2021/08/01 04:12:54;;;;;;;;;;;;;;;28.31;40.95;96484.53;5031866;28;1930;-52
2021/08/01 04:15:19;;;;;;;;;;;;;;;28.41;40.92;96477.22;5031817;28;1402;-53
2021/08/01 04:17:44;;;;;;;;;;;;;;;28.26;41.39;96484.13;5032017;28;1173;-51
2021/08/01 04:20:10;;;;;;;;;;;;;;;28.35;40.79;96472.56;5028423;28;1588;-51
2021/08/01 04:22:35;;;;;;;;;;;;;;;28.30;41.10;96477.56;5032537;28;1193;-52
2021/08/01 04:25:00;;;;;;;;;;;;;;;28.31;40.91;96466.78;5031789;28;1354;-53
2021/08/01 04:27:25;;;;;;;;;;;;;;;28.32;40.82;96476.41;5031192;28;1587;-52
2021/08/01 04:29:51;;;;;;;;;;;;;;;28.21;41.37;96482.00;5031873;28;1346;-51
2021/08/01 04:32:16;;;;;;;;;;;;;;;28.47;40.76;96481.88;5031796;28;1192;-53
2021/08/01 04:34:41;;;;;;;;;;;;;;;28.33;41.02;96485.19;5029217;28;1913;-52
2021/08/01 04:37:06;;;;;;;;;;;;;;;28.24;41.07;96486.13;5032491;28;1174;-52
2021/08/01 04:39:31;;;;;;;;;;;;;;;28.33;41.16;96490.47;5028775;28;1555;-52
2021/08/01 04:41:57;;;;;;;;;;;;;;;28.28;40.99;96492.75;5030983;28;1572;-50
2021/08/01 04:44:22;;;;;;;;;;;;;;;28.31;40.84;96509.22;5013065;28;1508;-53
2021/08/01 04:46:47;;;;;;;;;;;;;;;28.38;40.98;96512.03;5032230;28;1153;-53
2021/08/01 04:49:12;;;;;;;;;;;;;;;28.34;40.88;96516.81;5029680;28;1999;-53
2021/08/01 04:51:37;;;;;;;;;;;;;;;28.29;40.97;96531.56;5032530;28;1145;-53
2021/08/01 04:54:02;;;;;;;;;;;;;;;28.32;40.87;96537.38;5031050;28;1975;-51
2021/08/01 04:56:28;;;;;;;;;;;;;;;28.34;41.03;96546.00;5027253;28;1576;-53
2021/08/01 04:58:53;;;;;;;;;;;;;;;28.16;41.34;96547.09;5031463;28;1106;-52
2021/08/01 05:01:18;;;;;;;;;;;;;;;28.23;41.12;96545.47;5030389;28;1310;-52
2021/08/01 05:03:43;;;;;;;;;;;;;;;28.22;41.17;96557.88;5030456;28;1947;-51
2021/08/01 05:06:10;;;;;;;;;;;;;;;28.29;40.98;96558.06;5030979;28;1137;-53
2021/08/01 05:08:35;;;;;;;;;;;;;;;28.30;41.15;96552.63;5031242;28;1341;-53
2021/08/01 05:11:00;;;;;;;;;;;;;;;28.25;41.28;96556.72;5031158;28;1583;-52
2021/08/01 05:13:25;;;;;;;;;;;;;;;28.36;41.00;96565.25;5030146;28;1959;-51
2021/08/01 05:15:51;;;;;;;;;;;;;;;28.22;41.14;96563.19;5032133;28;1428;-52
2021/08/01 05:18:16;;;;;;;;;;;;;;;28.25;41.01;96568.16;5030873;28;1288;-53
2021/08/01 05:20:41;;;;;;;;;;;;;;;28.19;41.14;96565.31;5028920;28;1684;-51
2021/08/01 05:23:07;;;;;;;;;;;;;;;28.18;41.47;96561.84;5030525;28;1225;-51
2021/08/01 05:25:32;;;;;;;;;;;;;;;28.29;41.09;96558.94;5028636;28;1505;-52
2021/08/01 05:27:57;;;;;;;;;;;;;;;28.33;40.84;96560.25;5031741;28;1043;-54
2021/08/01 05:30:22;;;;;;;;;;;;;;;28.26;41.00;96571.63;5030238;28;1274;-53
2021/08/01 05:32:47;;;;;;;;;;;;;;;28.34;40.68;96571.69;5030033;28;1902;-52
2021/08/01 05:35:13;;;;;;;;;;;;;;;28.25;41.01;96576.09;5028632;28;1583;-53
2021/08/01 05:37:38;;;;;;;;;;;;;;;28.18;41.43;96572.44;5030546;28;1444;-52
2021/08/01 05:40:03;;;;;;;;;;;;;;;28.38;40.59;96567.72;5029583;28;1500;-52
2021/08/01 05:42:29;;;;;;;;;;;;;;;28.34;40.95;96561.06;5028572;28;1611;-51
2021/08/01 05:44:54;;;;;;;;;;;;;;;28.29;41.16;96573.97;5027729;28;1397;-53
2021/08/01 05:47:19;;;;;;;;;;;;;;;28.22;41.28;96572.97;5031178;28;1308;-51
2021/08/01 05:49:44;;;;;;;;;;;;;;;28.33;40.89;96577.97;5029308;28;1583;-51
2021/08/01 05:52:10;;;;;;;;;;;;;;;28.24;40.82;96581.56;5031097;28;1263;-53
2021/08/01 05:54:35;;;;;;;;;;;;;;;28.24;41.12;96585.06;5026437;28;1965;-52
2021/08/01 05:57:00;;;;;;;;;;;;;;;28.31;41.14;96593.22;5029432;28;1638;-51
2021/08/01 05:59:25;;;;;;;;;;;;;;;28.28;41.03;96583.75;5030079;28;1248;-53
2021/08/01 06:01:51;;;;;;;;;;;;;;;28.33;41.00;96581.47;5027393;28;1517;-53
2021/08/01 06:04:16;;;;;;;;;;;;;;;28.34;40.84;96575.16;5028343;28;1782;-53
2021/08/01 06:06:41;;;;;;;;;;;;;;;28.39;40.78;96572.03;5030617;28;1435;-53
2021/08/01 06:09:06;;;;;;;;;;;;;;;28.33;40.80;96581.47;5029371;28;1106;-53
2021/08/01 06:11:31;;;;;;;;;;;;;;;28.25;41.26;96593.84;5029282;28;1559;-52
2021/08/01 06:13:57;;;;;;;;;;;;;;;28.33;40.93;96607.16;5031142;28;1914;-51
2021/08/01 06:16:22;;;;;;;;;;;;;;;28.24;40.99;96616.03;5029722;28;1367;-51
2021/08/01 06:18:47;;;;;;;;;;;;;;;28.24;41.25;96627.47;5028788;28;1531;-51
2021/08/01 06:21:16;;;;;;;;;;;;;;;28.13;41.33;96640.19;5029497;28;1603;-53
2021/08/01 06:23:42;;;;;;;;;;;;;;;28.22;41.01;96652.50;5028291;28;1371;-52
2021/08/01 06:26:08;;;;;;;;;;;;;;;28.24;40.92;96643.38;5028388;28;1611;-53
2021/08/01 06:28:33;;;;;;;;;;;;;;;28.32;40.83;96651.41;5030268;28;1178;-53
2021/08/01 06:31:01;;;;;;;;;;;;;;;28.33;40.92;96649.56;5026799;28;1611;-54
2021/08/01 06:33:27;;;;;;;;;;;;;;;28.34;40.99;96657.38;5028400;28;1902;-52
2021/08/01 06:35:52;;;;;;;;;;;;;;;28.24;40.76;96653.16;5028918;28;1373;-52
2021/08/01 06:38:17;;;;;;;;;;;;;;;28.20;41.13;96659.75;5029808;28;1232;-53
2021/08/01 06:40:42;;;;;;;;;;;;;;;28.36;40.69;96652.75;5026546;28;1579;-52
2021/08/01 06:43:08;;;;;;;;;;;;;;;28.50;40.39;96645.97;5030245;28;1078;-54
2021/08/01 06:45:33;;;;;;;;;;;;;;;28.21;40.92;96649.03;5030031;28;1501;-52
2021/08/01 06:47:58;;;;;;;;;;;;;;;28.30;40.82;96645.44;5030600;28;1252;-53
2021/08/01 06:50:23;;;;;;;;;;;;;;;28.55;40.35;96637.56;4965448;28;1564;-54
2021/08/01 06:52:48;;;;;;;;;;;;;;;28.30;41.10;96644.59;5029180;28;1972;-54
2021/08/01 06:55:14;;;;;;;;;;;;;;;28.28;40.79;96642.09;5049111;22;1942;-91
2021/08/01 06:57:39;;;;;;;;;;;;;;;28.31;40.85;96654.22;5017429;28;1761;-91
2021/08/01 07:00:05;;;;;;;;;;;;;;;28.30;40.83;96660.50;5018326;28;1300;-91
2021/08/01 07:02:30;;;;;;;;;;;;;;;28.34;40.55;96661.84;5001842;28;1225;-91
2021/08/01 07:04:56;;;;;;;;;;;;;;;28.28;41.06;96663.31;5000422;28;1535;-92
2021/08/01 07:07:22;;;;;;;;;;;;;;;28.38;40.79;96662.38;5002236;28;1341;-92
2021/08/01 07:09:47;;;;;;;;;;;;;;;28.21;41.03;96678.19;4998166;28;1631;-91
2021/08/01 07:12:12;;;;;;;;;;;;;;;28.27;41.08;96671.38;5000723;28;1647;-92
2021/08/01 07:14:37;;;;;;;;;;;;;;;28.27;40.98;96685.47;5000176;28;1966;-91
2021/08/01 07:17:03;;;;;;;;;;;;;;;28.36;40.48;96681.94;5021585;28;1328;-92
2021/08/01 07:19:28;;;;;;;;;;;;;;;28.25;41.06;96687.47;5015839;28;1575;-92
2021/08/01 07:21:53;;;;;;;;;;;;;;;28.20;40.96;96680.97;5001413;28;1311;-91
2021/08/01 07:24:18;;;;;;;;;;;;;;;28.35;40.43;96682.88;5018770;28;1177;-91
2021/08/01 07:26:45;;;;;;;;;;;;;;;28.28;40.99;96688.97;5018412;28;1558;-91
2021/08/01 07:29:10;;;;;;;;;;;;;;;28.25;40.80;96678.69;4985917;28;1213;-91
2021/08/01 07:31:35;;;;;;;;;;;;;;;28.29;41.05;96688.00;5000524;28;1248;-91
2021/08/01 07:34:01;;;;;;;;;;;;;;;28.24;40.94;96683.16;5018873;28;1898;-92
2021/08/01 07:36:26;;;;;;;;;;;;;;;28.24;41.13;96682.31;5001081;28;1454;-91
2021/08/01 07:38:52;;;;;;;;;;;;;;;28.25;40.97;96681.34;5021129;28;1041;-91
2021/08/01 07:41:17;;;;;;;;;;;;;;;28.20;40.95;96687.13;4998702;28;1625;-92
2021/08/01 07:43:42;;;;;;;;;;;;;;;28.29;40.82;96693.28;4984663;28;1480;-91
2021/08/01 07:46:07;;;;;;;;;;;;;;;28.20;41.07;96694.22;5006473;28;1209;-91
2021/08/01 07:48:33;;;;;;;;;;;;;;;28.33;40.57;96699.97;5023327;28;1232;-92
2021/08/01 07:50:59;;;;;;;;;;;;;;;28.20;41.25;96692.44;4988202;28;1602;-90
2021/08/01 07:53:25;;;;;;;;;;;;;;;28.29;40.93;96693.28;5004428;28;1914;-91
2021/08/01 07:55:50;;;;;;;;;;;;;;;28.16;40.97;96690.25;5021520;28;1595;-91
2021/08/01 07:58:15;;;;;;;;;;;;;;;28.21;41.00;96688.78;5020363;28;1524;-91
2021/08/01 08:00:40;;;;;;;;;;;;;;;28.12;41.17;96689.72;5003944;28;1237;-91
2021/08/01 08:03:06;;;;;;;;;;;;;;;28.20;41.02;96688.91;5022221;28;1198;-91
2021/08/01 08:05:31;;;;;;;;;;;;;;;28.21;40.90;96691.44;5003228;28;1552;-91
2021/08/01 08:07:56;;;;;;;;;;;;;;;28.24;40.85;96683.16;5024349;28;1294;-91
2021/08/01 08:10:22;;;;;;;;;;;;;;;28.27;40.85;96677.53;5021217;28;1602;-91
2021/08/01 08:12:48;;;;;;;;;;;;;;;28.23;40.89;96686.81;5003499;28;1906;-91
2021/08/01 08:15:13;;;;;;;;;;;;;;;28.17;41.02;96683.94;5022914;28;1188;-91
2021/08/01 08:17:38;;;;;;;;;;;;;;;28.23;41.05;96685.97;5003514;28;1474;-91
2021/08/01 08:20:04;;;;;;;;;;;;;;;28.20;41.22;96680.97;5004677;28;1568;-92
2021/08/01 08:22:29;;;;;;;;;;;;;;;28.30;40.89;96674.59;4986224;28;1437;-91
2021/08/01 08:24:54;;;;;;;;;;;;;;;28.26;40.68;96685.63;5003902;28;1076;-92
2021/08/01 08:27:19;;;;;;;;;;;;;;;28.24;41.04;96682.31;5001043;28;1632;-92
2021/08/01 08:29:45;;;;;;;;;;;;;;;28.16;41.06;96700.84;5022075;28;1843;-91
2021/08/01 08:32:10;;;;;;;;;;;;;;;28.27;40.79;96705.84;5020955;28;1030;-91
2021/08/01 08:34:36;;;;;;;;;;;;;;;28.30;40.70;96709.06;5001733;28;1962;-91
2021/08/01 08:37:02;;;;;;;;;;;;;;;28.16;41.08;96706.16;5004413;28;1384;-91
2021/08/01 08:39:28;;;;;;;;;;;;;;;28.36;40.51;96703.13;5005286;28;1059;-92
2021/08/01 08:41:53;;;;;;;;;;;;;;;28.21;40.94;96704.69;5002752;28;1600;-91
2021/08/01 08:44:18;;;;;;;;;;;;;;;28.16;41.21;96700.84;4986718;28;1317;-91
2021/08/01 08:46:44;;;;;;;;;;;;;;;28.23;41.01;96697.41;5020083;28;1367;-91
2021/08/01 08:49:13;;;;;;;;;;;;;;;28.29;40.59;96702.13;5005813;28;1161;-91
2021/08/01 08:51:39;;;;;;;;;;;;;;;28.25;40.86;96702.53;5018668;28;1593;-91
2021/08/01 08:54:11;;;;;;;;;;;;;;;28.35;40.64;96687.38;5004617;28;1987;-92
2021/08/01 08:56:36;;;;;;;;;;;;;;;28.29;40.88;96688.00;5002615;28;1668;-91
2021/08/01 08:59:01;;;;;;;;;;;;;;;28.19;40.94;96685.44;5003273;28;1564;-91
2021/08/01 09:01:26;;;;;;;;;;;;;;;28.33;41.00;96689.34;5003706;28;1355;-91
2021/08/01 09:03:52;;;;;;;;;;;;;;;28.24;40.81;96687.63;5022503;28;1081;-91
2021/08/01 09:06:17;;;;;;;;;;;;;;;28.24;40.92;96682.31;5021471;28;1312;-91
2021/08/01 09:08:42;;;;;;;;;;;;;;;28.33;40.57;96684.88;4998481;28;1612;-91
2021/08/01 09:11:07;;;;;;;;;;;;;;;28.30;41.02;96679.91;5021729;28;1578;-92
2021/08/01 09:13:46;;;;;;;;;;;;;;;28.21;40.93;96682.66;5000973;28;1960;-92
2021/08/01 09:16:11;;;;;;;;;;;;;;;28.25;40.93;96697.25;5018047;28;1103;-92
2021/08/01 09:18:36;;;;;;;;;;;;;;;28.22;40.88;96701.06;5000550;28;1610;-91
2021/08/01 09:21:01;;;;;;;;;;;;;;;28.26;40.90;96702.38;5004535;28;1153;-92
2021/08/01 09:23:26;;;;;;;;;;;;;;;28.17;41.21;96713.09;5021074;28;1252;-91
2021/08/01 09:25:59;;;;;;;;;;;;;;;28.32;40.83;96712.38;5001498;28;1593;-91
2021/08/01 09:28:24;;;;;;;;;;;;;;;28.25;41.09;96706.03;5001080;28;1554;-91
2021/08/01 09:31:00;;;;;;;;;;;;;;;28.20;41.04;96718.09;5022023;28;1217;-91
2021/08/01 09:33:35;;;;;;;;;;;;;;;28.14;40.99;96716.91;5002557;28;1976;-90
2021/08/01 09:36:03;;;;;;;;;;;;;;;28.22;41.07;96711.66;5002094;28;1155;-91
2021/08/01 09:38:32;;;;;;;;;;;;;;;28.22;41.20;96716.13;5019406;28;1570;-91
2021/08/01 09:41:02;;;;;;;;;;;;;;;28.19;41.35;96721.72;5001086;28;1643;-91
2021/08/01 09:43:27;;;;;;;;;;;;;;;28.31;40.78;96716.03;5002384;28;1135;-91
2021/08/01 09:45:57;;;;;;;;;;;;;;;28.46;40.63;96724.22;5002035;28;1386;-91
2021/08/01 09:48:22;;;;;;;;;;;;;;;28.25;40.92;96726.41;5020753;28;1408;-91
2021/08/01 09:51:00;;;;;;;;;;;;;;;28.25;41.12;96723.75;5018868;28;1558;-91
2021/08/01 09:53:25;;;;;;;;;;;;;;;28.12;41.00;96724.16;5018986;28;1971;-91
2021/08/01 09:56:09;;;;;;;;;;;;;;;28.19;40.92;96721.72;5017759;28;1983;-91
2021/08/01 09:58:35;;;;;;;;;;;;;;;28.29;40.70;96727.75;5002777;28;1458;-91
2021/08/01 10:01:00;;;;;;;;;;;;;;;28.31;40.64;96721.34;5020788;28;1157;-91
2021/08/01 10:03:41;;;;;;;;;;;;;;;28.26;40.70;96723.59;5001448;28;1271;-91
2021/08/01 10:06:07;;;;;;;;;;;;;;;28.27;40.73;96725.25;5001315;28;1639;-91
2021/08/01 10:08:51;;;;;;;;;;;;;;;28.30;40.75;96721.50;5020177;28;1379;-92
2021/08/01 10:11:17;;;;;;;;;;;;;;;28.32;40.82;96715.03;4985764;28;1637;-92
2021/08/01 10:13:43;;;;;;;;;;;;;;;28.25;40.98;96713.16;5022421;28;1961;-90
2021/08/01 10:16:09;;;;;;;;;;;;;;;28.29;40.83;96717.16;5020621;28;1251;-91
2021/08/01 10:18:34;;;;;;;;;;;;;;;28.28;40.83;96723.44;5000177;28;1600;-91
2021/08/01 10:21:00;;;;;;;;;;;;;;;28.25;41.04;96721.09;5021540;28;1212;-91
2021/08/01 10:23:25;;;;;;;;;;;;;;;28.30;40.76;96718.84;5019525;28;1315;-91
2021/08/01 10:25:50;;;;;;;;;;;;;;;28.13;41.44;96714.44;5001155;28;1600;-91
2021/08/01 10:28:19;;;;;;;;;;;;;;;28.35;40.88;96716.53;5002071;28;1312;-91
2021/08/01 10:30:44;;;;;;;;;;;;;;;28.33;40.75;96718.53;5002407;28;1174;-91
2021/08/01 10:33:10;;;;;;;;;;;;;;;28.20;41.00;96712.78;5003034;28;1961;-91
2021/08/01 10:35:35;;;;;;;;;;;;;;;28.19;40.94;96706.66;5011430;28;1494;-94
2021/08/01 10:38:01;;;;;;;;;;;;;;;28.45;40.63;96705.81;5023653;28;1422;-91
2021/08/01 10:40:27;;;;;;;;;;;;;;;28.27;40.90;96693.44;4982545;28;1606;-92
2021/08/01 10:42:57;;;;;;;;;;;;;;;28.14;41.00;96711.63;5020604;28;1085;-91
2021/08/01 10:45:22;;;;;;;;;;;;;;;28.21;41.07;96710.00;5003379;28;1446;-91
2021/08/01 10:47:48;;;;;;;;;;;;;;;28.15;41.17;96710.63;5001800;28;1342;-92
2021/08/01 10:50:23;;;;;;;;;;;;;;;28.22;41.00;96700.22;5000413;28;1846;-92
2021/08/01 10:52:49;;;;;;;;;;;;;;;28.23;41.08;96713.31;5002702;28;1139;-92
2021/08/01 10:55:21;;;;;;;;;;;;;;;28.23;41.00;96707.19;4999675;28;1958;-91
2021/08/01 10:58:06;;;;;;;;;;;;;;;28.26;40.74;96704.19;5018140;28;1312;-91
2021/08/01 11:00:51;;;;;;;;;;;;;;;28.24;40.81;96709.66;5019041;28;1327;-91
2021/08/01 11:03:20;;;;;;;;;;;;;;;28.34;40.63;96709.56;5018346;28;1622;-91
2021/08/01 11:05:45;;;;;;;;;;;;;;;28.25;40.92;96705.19;5001403;28;1348;-91
2021/08/01 11:08:11;;;;;;;;;;;;;;;28.26;41.13;96702.38;5019563;28;1235;-92
2021/08/01 11:10:36;;;;;;;;;;;;;;;28.24;40.86;96699.06;4996220;28;1591;-91
2021/08/01 11:13:21;;;;;;;;;;;;;;;28.31;40.88;96699.28;5002562;28;1953;-91
2021/08/01 11:15:47;;;;;;;;;;;;;;;28.32;40.61;96703.59;5001774;28;1373;-92
2021/08/01 11:18:12;;;;;;;;;;;;;;;28.22;40.98;96701.06;5017682;28;1618;-91
2021/08/01 11:20:45;;;;;;;;;;;;;;;28.29;40.92;96690.66;5021084;28;1169;-92
2021/08/01 11:23:11;;;;;;;;;;;;;;;28.28;41.05;96688.97;5005523;28;1202;-92
2021/08/01 11:25:44;;;;;;;;;;;;;;;28.30;40.97;96693.16;5004196;28;1582;-91
2021/08/01 11:28:10;;;;;;;;;;;;;;;28.40;40.78;96685.06;5022476;28;1425;-92
2021/08/01 11:30:50;;;;;;;;;;;;;;;28.26;40.88;96685.63;5022542;28;1335;-91
2021/08/01 11:33:27;;;;;;;;;;;;;;;28.34;40.62;96696.31;5020519;28;1999;-93
2021/08/01 11:36:11;;;;;;;;;;;;;;;28.28;40.96;96694.25;5024372;28;1007;-91
2021/08/01 11:38:37;;;;;;;;;;;;;;;28.18;41.20;96699.69;5003292;28;1331;-92
2021/08/01 11:41:02;;;;;;;;;;;;;;;28.22;41.09;96694.91;5003841;28;1663;-91
2021/08/01 11:43:27;;;;;;;;;;;;;;;28.28;41.04;96707.50;5019319;28;1615;-91
2021/08/01 11:45:59;;;;;;;;;;;;;;;28.23;40.94;96709.84;5007231;28;1046;-91
2021/08/01 11:48:25;;;;;;;;;;;;;;;28.22;40.80;96714.31;5002777;28;1620;-91
2021/08/01 11:50:50;;;;;;;;;;;;;;;28.24;41.16;96704.38;5004564;28;1174;-91
2021/08/01 11:53:15;;;;;;;;;;;;;;;28.27;40.99;96703.22;5020230;28;1906;-92
2021/08/01 11:55:40;;;;;;;;;;;;;;;28.33;40.76;96705.25;5005236;28;1661;-91
2021/08/01 11:58:06;;;;;;;;;;;;;;;28.26;40.97;96699.72;5005884;28;1409;-91
2021/08/01 12:00:31;;;;;;;;;;;;;;;28.25;40.99;96699.88;5004597;28;1357;-92
2021/08/01 12:02:56;;;;;;;;;;;;;;;28.27;40.91;96705.84;5005089;28;1079;-91
2021/08/01 12:05:21;;;;;;;;;;;;;;;28.40;40.67;96698.34;5003957;28;1616;-91
2021/08/01 12:07:48;;;;;;;;;;;;;;;28.30;40.82;96702.94;5007065;28;1286;-91
2021/08/01 12:10:14;;;;;;;;;;;;;;;28.30;40.85;96701.13;5005011;28;1225;-91
2021/08/01 12:12:39;;;;;;;;;;;;;;;28.29;41.05;96702.13;4999032;28;1560;-91
2021/08/01 12:15:05;;;;;;;;;;;;;;;28.27;41.11;96703.22;5023231;28;1919;-91
2021/08/01 12:17:34;;;;;;;;;;;;;;;28.26;40.67;96712.97;5004141;28;1280;-92
2021/08/01 12:19:59;;;;;;;;;;;;;;;28.35;40.89;96719.19;5020014;28;1479;-91
2021/08/01 12:22:24;;;;;;;;;;;;;;;28.28;40.95;96721.63;5021372;28;1118;-91
2021/08/01 12:24:50;;;;;;;;;;;;;;;28.39;40.45;96723.19;5021567;28;1354;-92
2021/08/01 12:27:16;;;;;;;;;;;;;;;28.26;41.04;96720.09;5021520;28;1618;-91
2021/08/01 12:29:42;;;;;;;;;;;;;;;28.23;40.82;96717.78;5003624;28;1248;-91
2021/08/01 12:32:28;;;;;;;;;;;;;;;28.27;40.84;96724.41;5022737;28;1162;-91
2021/08/01 12:35:03;;;;;;;;;;;;;;;28.20;41.09;96726.03;5001992;28;1910;-92
2021/08/01 12:39:56;;;;;;;;;;;;;;;28.23;41.02;96728.38;5027654;28;1371;-53
2021/08/01 12:42:23;;;;;;;;;;;;;;;28.26;40.74;96733.38;5030077;28;1491;-52
2021/08/01 12:44:58;;;;;;;;;;;;;;;28.27;40.80;96740.31;5022310;28;1549;-52
2021/08/01 12:47:24;;;;;;;;;;;;;;;28.47;40.44;96733.84;5011686;28;1110;-53
2021/08/01 12:52:17;;;;;;;;;;;;;;;28.35;40.66;96727.97;5035523;23;1860;-49
2021/08/01 12:54:43;;;;;;;;;;;;;;;28.26;41.13;96728.06;5013406;28;1914;-51
2021/08/01 12:57:09;;;;;;;;;;;;;;;28.43;40.45;96729.84;5009251;28;1590;-50
2021/08/01 12:59:36;;;;;;;;;;;;;;;28.18;41.18;96728.03;5011054;28;1410;-51